createdAt,value
2022-08-20T00:00:13.897Z,99977.02
2022-08-20T00:03:01.988Z,99969.95
2022-08-20T00:05:32.517Z,99984.39
2022-08-20T00:07:59.715Z,99995.06
2022-08-20T00:10:26.779Z,99989.14
2022-08-20T00:12:53.105Z,99972.33
2022-08-20T00:15:21.756Z,99963.77
2022-08-20T00:17:49.910Z,99954.71
2022-08-20T00:20:16.372Z,99953.17
2022-08-20T00:22:42.620Z,99953.08
2022-08-20T00:25:09.738Z,99958.06
2022-08-20T00:27:36.523Z,99956.82
2022-08-20T00:30:04.792Z,99949.63
2022-08-20T00:32:31.161Z,99947.23
2022-08-20T00:34:57.512Z,99945.96
2022-08-20T00:37:23.683Z,99947.05
2022-08-20T00:39:49.929Z,99947.77
2022-08-20T00:42:16.263Z,99951.05
2022-08-20T00:44:45.912Z,99953.90
2022-08-20T00:47:12.118Z,99953.61
2022-08-20T00:49:38.449Z,99951.10
2022-08-20T00:52:06.860Z,99951.66
2022-08-20T00:54:34.952Z,99949.57
2022-08-20T00:57:03.326Z,99942.06
2022-08-20T00:59:30.958Z,99937.78
2022-08-20T01:01:58.255Z,99938.16
2022-08-20T01:04:28.846Z,99936.37
2022-08-20T01:06:55.613Z,99940.86
2022-08-20T01:09:50.036Z,99935.50
2022-08-20T01:12:09.454Z,99932.06
2022-08-20T01:14:44.421Z,99930.00
2022-08-20T01:17:15.174Z,99921.84
2022-08-20T01:19:43.216Z,99920.83
2022-08-20T01:22:28.261Z,99919.38
2022-08-20T01:25:08.325Z,99912.17
2022-08-20T01:27:42.741Z,99906.67
2022-08-20T01:30:09.587Z,99899.46
2022-08-20T01:32:35.830Z,99897.72
2022-08-20T01:35:02.227Z,99895.31
2022-08-20T01:37:28.887Z,99891.13
2022-08-20T01:39:57.990Z,99886.36
2022-08-20T01:42:32.278Z,99883.17
2022-08-20T01:45:19.143Z,99876.39
2022-08-20T01:47:46.033Z,99871.40
2022-08-20T01:50:17.709Z,99870.52
2022-08-20T01:53:03.675Z,99866.52
2022-08-20T01:55:30.611Z,99860.64
2022-08-20T01:57:57.203Z,99859.84
2022-08-20T02:00:23.582Z,99861.02
2022-08-20T02:02:50.177Z,99862.85
2022-08-20T02:05:16.799Z,99862.77
2022-08-20T02:07:42.994Z,99878.77
2022-08-20T02:10:10.491Z,99886.02
2022-08-20T02:12:36.859Z,99878.36
2022-08-20T02:15:04.086Z,99873.66
2022-08-20T02:17:30.473Z,99890.25
2022-08-20T02:20:00.791Z,99894.10
2022-08-20T02:22:44.223Z,99889.81
2022-08-20T02:25:17.122Z,99886.73
2022-08-20T02:27:44.793Z,99883.16
2022-08-20T02:30:21.192Z,99884.16
2022-08-20T02:32:56.355Z,99878.17
2022-08-20T02:35:23.676Z,99877.34
2022-08-20T02:37:51.594Z,99874.50
2022-08-20T02:40:18.781Z,99874.27
2022-08-20T02:42:57.202Z,99870.30
2022-08-20T02:45:23.407Z,99859.33
2022-08-20T02:47:51.809Z,99853.71
2022-08-20T02:50:19.573Z,99861.24
2022-08-20T02:52:48.819Z,99860.03
2022-08-20T02:55:28.250Z,99858.02
2022-08-20T02:57:55.763Z,99862.86
2022-08-20T03:00:25.471Z,99863.15
2022-08-20T03:02:51.666Z,99860.15
2022-08-20T03:05:18.802Z,99862.65
2022-08-20T03:07:46.267Z,99861.43
2022-08-20T03:10:13.444Z,99863.23
2022-08-20T03:12:40.178Z,99864.48
2022-08-20T03:15:08.845Z,99863.30
2022-08-20T03:17:44.305Z,99865.15
2022-08-20T03:20:10.915Z,99862.42
2022-08-20T03:22:37.197Z,99862.24
2022-08-20T03:25:04.336Z,99862.27
2022-08-20T03:27:36.277Z,99864.69
2022-08-20T03:30:06.583Z,99857.39
2022-08-20T03:32:32.800Z,99849.64
2022-08-20T03:34:59.088Z,99850.23
2022-08-20T03:37:28.614Z,99850.95
2022-08-20T03:39:54.806Z,99846.25
2022-08-20T03:42:21.045Z,99844.60
2022-08-20T03:44:47.934Z,99850.96
2022-08-20T03:47:25.180Z,99862.61
2022-08-20T03:49:51.595Z,99869.98
2022-08-20T03:52:17.827Z,99879.70
2022-08-20T03:54:45.465Z,99885.91
2022-08-20T03:57:13.090Z,99879.66
2022-08-20T03:59:40.464Z,99880.90
2022-08-20T04:02:06.712Z,99874.08
2022-08-20T04:04:32.883Z,99864.42
2022-08-20T04:06:59.098Z,99859.48
2022-08-20T04:09:25.344Z,99862.77
2022-08-20T04:11:53.112Z,99866.11
2022-08-20T04:14:20.463Z,99872.86
2022-08-20T04:16:47.105Z,99876.94
2022-08-20T04:19:15.650Z,99878.95
2022-08-20T04:21:41.914Z,99877.94
2022-08-20T04:24:08.309Z,99883.30
2022-08-20T04:26:54.330Z,99884.75
2022-08-20T04:29:21.235Z,99884.89
2022-08-20T04:31:47.953Z,99884.40
2022-08-20T04:34:16.062Z,99882.83
2022-08-20T04:36:42.517Z,99882.04
2022-08-20T04:39:08.672Z,99876.89
2022-08-20T04:41:34.845Z,99876.63
2022-08-20T04:44:01.548Z,99878.94
2022-08-20T04:46:27.822Z,99882.45
2022-08-20T04:48:54.450Z,99884.84
2022-08-20T04:51:23.432Z,99885.80
2022-08-20T04:53:53.661Z,99884.53
2022-08-20T04:56:22.911Z,99879.46
2022-08-20T04:58:50.435Z,99876.28
2022-08-20T05:01:16.734Z,99879.26
2022-08-20T05:03:43.286Z,99880.39
2022-08-20T05:06:10.236Z,99880.63
2022-08-20T05:08:37.800Z,99877.00
2022-08-20T05:11:33.182Z,99876.42
2022-08-20T05:13:52.269Z,99873.69
2022-08-20T05:16:19.076Z,99875.33
2022-08-20T05:18:46.123Z,99876.60
2022-08-20T05:21:19.805Z,99878.55
2022-08-20T05:23:46.008Z,99885.84
2022-08-20T05:26:12.406Z,99879.06
2022-08-20T05:28:54.287Z,99880.85
2022-08-20T05:31:32.229Z,99885.54
2022-08-20T05:34:01.455Z,99887.99
2022-08-20T05:36:28.758Z,99883.88
2022-08-20T05:38:55.543Z,99879.55
2022-08-20T05:41:28.462Z,99878.53
2022-08-20T05:44:01.913Z,99878.40
2022-08-20T05:46:30.391Z,99880.91
2022-08-20T05:48:59.462Z,99876.19
2022-08-20T05:51:27.229Z,99878.14
2022-08-20T05:53:53.389Z,99882.11
2022-08-20T05:56:19.663Z,99881.69
2022-08-20T05:58:52.901Z,99877.05
2022-08-20T06:01:19.409Z,99877.14
2022-08-20T06:04:04.286Z,99880.95
2022-08-20T06:06:44.134Z,99885.05
2022-08-20T06:09:16.591Z,99885.92
2022-08-20T06:11:54.788Z,99887.63
2022-08-20T06:14:25.873Z,99891.12
2022-08-20T06:16:57.868Z,99888.15
2022-08-20T06:19:26.386Z,99890.42
2022-08-20T06:21:53.208Z,99891.63
2022-08-20T06:24:20.588Z,99892.54
2022-08-20T06:26:46.945Z,99895.88
2022-08-20T06:29:13.151Z,99896.06
2022-08-20T06:31:39.979Z,99896.08
2022-08-20T06:34:06.801Z,99902.77
2022-08-20T06:36:33.744Z,99900.64
2022-08-20T06:38:59.941Z,99895.68
2022-08-20T06:41:37.015Z,99900.36
2022-08-20T06:44:03.925Z,99903.42
2022-08-20T06:46:30.126Z,99903.55
2022-08-20T06:48:56.474Z,99902.48
2022-08-20T06:51:22.754Z,99902.59
2022-08-20T06:53:48.938Z,99900.45
2022-08-20T06:56:15.893Z,99902.86
2022-08-20T06:58:43.329Z,99898.14
2022-08-20T07:01:11.261Z,99901.02
2022-08-20T07:03:54.247Z,99895.94
2022-08-20T07:06:26.275Z,99896.69
2022-08-20T07:08:55.134Z,99896.75
2022-08-20T07:11:27.205Z,99898.30
2022-08-20T07:13:55.116Z,99899.30
2022-08-20T07:16:21.303Z,99903.48
2022-08-20T07:18:47.552Z,99903.15
2022-08-20T07:21:13.732Z,99903.35
2022-08-20T07:23:41.671Z,99906.27
2022-08-20T07:26:07.942Z,99914.02
2022-08-20T07:28:34.122Z,99917.23
2022-08-20T07:31:20.415Z,99921.80
2022-08-20T07:33:47.222Z,99922.28
2022-08-20T07:36:17.046Z,99927.27
2022-08-20T07:38:46.139Z,99926.36
2022-08-20T07:41:12.701Z,99921.77
2022-08-20T07:43:39.200Z,99921.59
2022-08-20T07:46:08.784Z,99915.05
2022-08-20T07:48:37.816Z,99908.51
2022-08-20T07:51:04.411Z,99901.45
2022-08-20T07:53:35.623Z,99903.64
2022-08-20T07:56:06.735Z,99904.42
2022-08-20T07:58:35.152Z,99894.25
2022-08-20T08:01:01.846Z,99890.63
2022-08-20T08:03:39.527Z,99889.17
2022-08-20T08:06:14.847Z,99890.40
2022-08-20T08:08:43.566Z,99892.12
2022-08-20T08:11:10.002Z,99895.48
2022-08-20T08:13:38.725Z,99894.58
2022-08-20T08:16:06.021Z,99901.48
2022-08-20T08:18:43.147Z,99893.61
2022-08-20T08:21:12.228Z,99888.73
2022-08-20T08:23:43.440Z,99887.35
2022-08-20T08:26:15.960Z,99886.16
2022-08-20T08:28:45.103Z,99891.36
2022-08-20T08:31:11.560Z,99892.69
2022-08-20T08:33:39.993Z,99896.48
2022-08-20T08:36:08.922Z,99902.64
2022-08-20T08:38:35.669Z,99895.20
2022-08-20T08:41:22.176Z,99895.79
2022-08-20T08:43:49.816Z,99890.17
2022-08-20T08:46:17.994Z,99892.48
2022-08-20T08:48:47.074Z,99893.12
2022-08-20T08:51:15.538Z,99894.96
2022-08-20T08:53:45.410Z,99894.45
2022-08-20T08:56:13.633Z,99896.05
2022-08-20T08:58:40.871Z,99899.41
2022-08-20T09:01:53.045Z,99903.45
2022-08-20T09:03:58.216Z,99906.53
2022-08-20T09:06:24.755Z,99899.31
2022-08-20T09:08:51.089Z,99901.24
2022-08-20T09:11:19.177Z,99901.00
2022-08-20T09:13:45.797Z,99898.67
2022-08-20T09:16:12.392Z,99900.38
2022-08-20T09:18:39.033Z,99896.91
2022-08-20T09:21:06.789Z,99900.64
2022-08-20T09:23:33.083Z,99893.02
2022-08-20T09:25:59.231Z,99891.33
2022-08-20T09:28:34.805Z,99887.84
2022-08-20T09:31:01.772Z,99885.93
2022-08-20T09:33:28.411Z,99888.22
2022-08-20T09:35:54.771Z,99893.13
2022-08-20T09:38:21.169Z,99887.40
2022-08-20T09:40:47.474Z,99891.81
2022-08-20T09:43:15.055Z,99884.39
2022-08-20T09:45:41.371Z,99880.09
2022-08-20T09:48:10.171Z,99877.65
2022-08-20T09:50:38.373Z,99876.77
2022-08-20T09:53:05.804Z,99870.00
2022-08-20T09:55:38.691Z,99863.74
2022-08-20T09:58:17.599Z,99863.02
2022-08-20T10:00:44.111Z,99864.68
2022-08-20T10:03:10.408Z,99859.05
2022-08-20T10:05:36.637Z,99854.16
2022-08-20T10:08:09.689Z,99857.41
2022-08-20T10:10:36.001Z,99854.59
2022-08-20T10:13:02.666Z,99851.70
2022-08-20T10:15:29.518Z,99853.03
2022-08-20T10:17:56.710Z,99848.70
2022-08-20T10:20:23.388Z,99853.09
2022-08-20T10:22:50.608Z,99846.39
2022-08-20T10:25:18.228Z,99852.69
2022-08-20T10:27:44.734Z,99856.64
2022-08-20T10:30:11.359Z,99854.45
2022-08-20T10:32:37.547Z,99853.98
2022-08-20T10:35:04.140Z,99855.72
2022-08-20T10:37:30.776Z,99851.47
2022-08-20T10:39:57.745Z,99853.11
2022-08-20T10:42:24.075Z,99856.39
2022-08-20T10:44:50.412Z,99866.71
2022-08-20T10:47:17.994Z,99865.34
2022-08-20T10:49:44.350Z,99866.97
2022-08-20T10:52:10.913Z,99867.68
2022-08-20T10:54:41.344Z,99865.80
2022-08-20T10:57:08.815Z,99865.77
2022-08-20T10:59:39.034Z,99863.25
2022-08-20T11:02:05.376Z,99851.77
2022-08-20T11:04:31.752Z,99848.37
2022-08-20T11:06:59.242Z,99843.13
2022-08-20T11:09:27.928Z,99840.13
2022-08-20T11:11:54.245Z,99839.09
2022-08-20T11:14:20.697Z,99830.12
2022-08-20T11:16:46.989Z,99833.92
2022-08-20T11:19:13.252Z,99831.89
2022-08-20T11:21:39.432Z,99828.97
2022-08-20T11:24:05.709Z,99828.77
2022-08-20T11:26:31.965Z,99823.13
2022-08-20T11:28:58.343Z,99827.73
2022-08-20T11:31:24.539Z,99831.83
2022-08-20T11:33:50.841Z,99828.84
2022-08-20T11:36:17.156Z,99827.80
2022-08-20T11:38:43.708Z,99827.52
2022-08-20T11:41:10.047Z,99821.93
2022-08-20T11:43:36.265Z,99824.05
2022-08-20T11:46:03.412Z,99821.02
2022-08-20T11:48:29.910Z,99819.85
2022-08-20T11:50:56.488Z,99815.71
2022-08-20T11:53:23.157Z,99818.69
2022-08-20T11:55:49.590Z,99823.23
2022-08-20T11:58:16.681Z,99821.55
2022-08-20T12:00:43.214Z,99814.53
2022-08-20T12:03:10.402Z,99807.89
2022-08-20T12:05:39.554Z,99812.66
2022-08-20T12:08:06.003Z,99807.69
2022-08-20T12:10:32.456Z,99813.75
2022-08-20T12:12:58.923Z,99818.81
2022-08-20T12:15:26.882Z,99811.15
2022-08-20T12:17:53.856Z,99806.09
2022-08-20T12:20:20.153Z,99802.59
2022-08-20T12:22:46.520Z,99800.34
2022-08-20T12:25:12.927Z,99803.29
2022-08-20T12:27:39.374Z,99804.48
2022-08-20T12:30:12.988Z,99803.29
2022-08-20T12:32:39.475Z,99796.11
2022-08-20T12:35:06.775Z,99803.45
2022-08-20T12:37:33.224Z,99801.35
2022-08-20T12:40:00.482Z,99804.60
2022-08-20T12:42:27.060Z,99801.73
2022-08-20T12:44:53.321Z,99797.91
2022-08-20T12:47:24.309Z,99793.98
2022-08-20T12:49:51.997Z,99790.02
2022-08-20T12:52:19.393Z,99793.02
2022-08-20T12:54:46.149Z,99789.05
2022-08-20T12:57:16.389Z,99788.54
2022-08-20T12:59:42.634Z,99790.20
2022-08-20T13:02:14.363Z,99785.02
2022-08-20T13:04:44.767Z,99785.14
2022-08-20T13:07:11.999Z,99779.32
2022-08-20T13:09:38.605Z,99777.98
2022-08-20T13:13:15.040Z,99768.73
2022-08-20T13:15:45.335Z,99772.70
2022-08-20T13:18:13.091Z,99763.74
2022-08-20T13:20:40.937Z,99759.61
2022-08-20T13:23:08.903Z,99758.27
2022-08-20T13:25:36.670Z,99755.20
2022-08-20T13:28:04.923Z,99757.98
2022-08-20T13:30:34.883Z,99759.73
2022-08-20T13:33:02.874Z,99759.20
2022-08-20T13:35:31.231Z,99761.77
2022-08-20T13:37:58.892Z,99761.71
2022-08-20T13:40:26.764Z,99761.81
2022-08-20T13:42:54.673Z,99760.30
2022-08-20T13:45:22.656Z,99763.02
2022-08-20T13:47:54.389Z,99768.54
2022-08-20T13:50:24.270Z,99773.95
2022-08-20T13:52:52.101Z,99767.80
2022-08-20T13:55:21.807Z,99767.73
2022-08-20T13:57:51.233Z,99769.71
2022-08-20T14:00:20.676Z,99768.05
2022-08-20T14:02:48.326Z,99771.45
2022-08-20T14:05:19.340Z,99776.54
2022-08-20T14:07:47.715Z,99776.30
2022-08-20T14:10:19.538Z,99775.80
2022-08-20T14:12:48.234Z,99773.39
2022-08-20T14:15:16.293Z,99777.94
2022-08-20T14:17:50.748Z,99780.55
2022-08-20T14:20:21.283Z,99774.80
2022-08-20T14:22:49.282Z,99780.73
2022-08-20T14:25:18.824Z,99776.85
2022-08-20T14:27:46.711Z,99777.50
2022-08-20T14:30:17.699Z,99781.50
2022-08-20T14:32:45.439Z,99782.55
2022-08-20T14:35:13.638Z,99785.92
2022-08-20T14:37:45.774Z,99782.34
2022-08-20T14:40:16.056Z,99787.40
2022-08-20T14:42:44.539Z,99786.63
2022-08-20T14:45:16.472Z,99786.96
2022-08-20T14:47:54.000Z,99784.39
2022-08-20T14:50:28.052Z,99784.63
2022-08-20T14:52:56.808Z,99785.31
2022-08-20T14:55:31.415Z,99786.66
2022-08-20T14:57:59.232Z,99789.89
2022-08-20T15:00:29.714Z,99787.30
2022-08-20T15:02:57.862Z,99789.90
2022-08-20T15:05:25.967Z,99791.81
2022-08-20T15:07:56.561Z,99793.17
2022-08-20T15:10:34.281Z,99796.36
2022-08-20T15:13:02.796Z,99798.50
2022-08-20T15:15:30.443Z,99796.17
2022-08-20T15:18:03.484Z,99794.50
2022-08-20T15:20:32.994Z,99789.54
2022-08-20T15:23:01.080Z,99792.70
2022-08-20T15:25:36.481Z,99794.37
2022-08-20T15:28:08.749Z,99792.77
2022-08-20T15:30:38.963Z,99797.07
2022-08-20T15:33:08.104Z,99791.41
2022-08-20T15:35:36.021Z,99792.29
2022-08-20T15:38:04.322Z,99788.88
2022-08-20T15:40:32.715Z,99786.80
2022-08-20T15:43:01.251Z,99784.88
2022-08-20T15:45:29.591Z,99786.52
2022-08-20T15:48:13.684Z,99793.48
2022-08-20T15:50:47.450Z,99794.80
2022-08-20T15:53:22.982Z,99791.27
2022-08-20T15:56:12.975Z,99787.86
2022-08-20T15:58:59.098Z,99791.50
2022-08-20T16:02:02.890Z,99786.14
2022-08-20T16:04:49.257Z,99788.33
2022-08-20T16:07:26.746Z,99787.65
2022-08-20T16:10:01.726Z,99784.65
2022-08-20T16:12:34.256Z,99779.33
2022-08-20T16:15:09.531Z,99781.04
2022-08-20T16:17:41.532Z,99777.52
2022-08-20T16:20:38.742Z,99781.89
2022-08-20T16:23:07.082Z,99776.70
2022-08-20T16:25:55.749Z,99773.62
2022-08-20T16:28:27.950Z,99768.96
2022-08-20T16:31:03.589Z,99768.15
2022-08-20T16:33:45.366Z,99768.64
2022-08-20T16:36:37.786Z,99773.47
2022-08-20T16:39:17.330Z,99772.59
2022-08-20T16:41:46.782Z,99776.33
2022-08-20T16:44:39.289Z,99779.66
2022-08-20T16:47:28.132Z,99785.20
2022-08-20T16:50:05.684Z,99786.33
2022-08-20T16:52:34.152Z,99782.66
2022-08-20T16:55:02.796Z,99784.20
2022-08-20T16:57:30.542Z,99783.30
2022-08-20T17:00:35.167Z,99780.20
2022-08-20T17:03:06.732Z,99781.80
2022-08-20T17:05:38.734Z,99782.14
2022-08-20T17:08:08.704Z,99783.82
2022-08-20T17:10:54.847Z,99789.20
2022-08-20T17:13:29.255Z,99788.77
2022-08-20T17:16:03.914Z,99789.16
2022-08-20T17:18:36.678Z,99794.33
2022-08-20T17:21:13.108Z,99797.26
2022-08-20T17:23:55.980Z,99799.41
2022-08-20T17:26:30.733Z,99802.89
2022-08-20T17:29:02.743Z,99803.00
2022-08-20T17:31:43.783Z,99809.49
2022-08-20T17:34:23.217Z,99810.60
2022-08-20T17:37:08.940Z,99808.17
2022-08-20T17:39:46.380Z,99804.68
2022-08-20T17:42:19.247Z,99805.77
2022-08-20T17:44:52.673Z,99812.41
2022-08-20T17:47:34.134Z,99811.19
2022-08-20T17:50:13.180Z,99815.73
2022-08-20T17:52:49.546Z,99818.02
2022-08-20T17:55:18.548Z,99818.92
2022-08-20T17:57:49.807Z,99819.06
2022-08-20T18:00:25.699Z,99819.09
2022-08-20T18:02:59.605Z,99820.14
2022-08-20T18:05:30.693Z,99818.41
2022-08-20T18:08:30.609Z,99817.85
2022-08-20T18:11:12.362Z,99813.53
2022-08-20T18:14:06.081Z,99812.25
2022-08-20T18:16:43.711Z,99810.08
2022-08-20T18:19:31.743Z,99810.67
2022-08-20T18:22:06.915Z,99810.69
2022-08-20T18:24:49.344Z,99811.38
2022-08-20T18:27:20.539Z,99814.66
2022-08-20T18:29:56.946Z,99811.94
2022-08-20T18:32:44.315Z,99812.48
2022-08-20T18:35:35.011Z,99814.10
2022-08-20T18:38:29.364Z,99814.98
2022-08-20T18:41:31.179Z,99821.79
2022-08-20T18:44:07.930Z,99826.75
2022-08-20T18:46:38.955Z,99832.09
2022-08-20T18:49:08.579Z,99835.64
2022-08-20T18:51:50.940Z,99839.22
2022-08-20T18:54:29.085Z,99840.23
2022-08-20T18:57:08.947Z,99841.56
2022-08-20T18:59:40.996Z,99842.77
2022-08-20T19:02:29.299Z,99843.89
2022-08-20T19:05:02.358Z,99845.46
2022-08-20T19:07:45.720Z,99848.16
2022-08-20T19:10:40.576Z,99849.78
2022-08-20T19:13:27.674Z,99852.42
2022-08-20T19:16:02.357Z,99857.94
2022-08-20T19:18:38.863Z,99856.61
2022-08-20T19:21:08.949Z,99850.22
2022-08-20T19:23:51.059Z,99847.27
2022-08-20T19:26:25.389Z,99845.26
2022-08-20T19:28:58.287Z,99844.52
2022-08-20T19:31:33.795Z,99841.14
2022-08-20T19:34:20.233Z,99839.97
2022-08-20T19:36:57.083Z,99833.50
2022-08-20T19:39:26.637Z,99828.92
2022-08-20T19:42:04.616Z,99824.38
2022-08-20T19:44:45.107Z,99831.83
2022-08-20T19:47:24.413Z,99831.16
2022-08-20T19:49:56.611Z,99838.86
2022-08-20T19:52:48.005Z,99836.48
2022-08-20T19:55:36.751Z,99835.95
2022-08-20T19:58:26.107Z,99832.73
2022-08-20T20:00:56.337Z,99824.75
2022-08-20T20:03:25.680Z,99820.92
2022-08-20T20:05:59.819Z,99818.72
2022-08-20T20:08:30.561Z,99818.84
2022-08-20T20:11:00.558Z,99819.10
2022-08-20T20:13:33.273Z,99818.77
2022-08-20T20:16:07.564Z,99819.46
2022-08-20T20:18:38.026Z,99821.52
2022-08-20T20:21:13.530Z,99821.45
2022-08-20T20:23:46.956Z,99816.82
2022-08-20T20:26:18.043Z,99815.75
2022-08-20T20:28:52.993Z,99817.30
2022-08-20T20:31:29.587Z,99819.41
2022-08-20T20:34:00.003Z,99820.00
2022-08-20T20:36:47.805Z,99822.36
2022-08-20T20:39:31.944Z,99820.99
2022-08-20T20:42:02.420Z,99826.29
2022-08-20T20:44:37.107Z,99825.36
2022-08-20T20:47:20.799Z,99820.53
2022-08-20T20:49:53.222Z,99820.77
2022-08-20T20:52:25.614Z,99819.69
2022-08-20T20:55:11.911Z,99821.02
2022-08-20T20:57:40.462Z,99818.09
2022-08-20T21:00:13.707Z,99815.48
2022-08-20T21:02:42.092Z,99818.82
2022-08-20T21:05:11.561Z,99820.68
2022-08-20T21:07:54.657Z,99820.29
2022-08-20T21:10:24.919Z,99822.64
2022-08-20T21:12:54.635Z,99821.73
2022-08-20T21:15:24.639Z,99824.42
2022-08-20T21:17:52.608Z,99828.85
2022-08-20T21:20:22.407Z,99829.37
2022-08-20T21:22:50.176Z,99831.92
2022-08-20T21:25:18.923Z,99831.94
2022-08-20T21:27:48.974Z,99828.14
2022-08-20T21:30:17.247Z,99830.58
2022-08-20T21:32:44.980Z,99831.70
2022-08-20T21:35:13.457Z,99830.21
2022-08-20T21:37:41.483Z,99826.61
2022-08-20T21:40:10.673Z,99824.27
2022-08-20T21:42:40.137Z,99823.05
2022-08-20T21:45:10.697Z,99820.23
2022-08-20T21:47:38.591Z,99817.52
2022-08-20T21:50:08.010Z,99819.05
2022-08-20T21:52:36.239Z,99821.95
2022-08-20T21:55:10.337Z,99823.35
2022-08-20T21:57:38.326Z,99820.25
2022-08-20T22:00:15.147Z,99822.03
2022-08-20T22:02:43.184Z,99821.48
2022-08-20T22:05:11.520Z,99823.44
2022-08-20T22:07:39.214Z,99824.48
2022-08-20T22:10:07.478Z,99824.95
2022-08-20T22:12:35.415Z,99830.45
2022-08-20T22:15:05.361Z,99832.86
2022-08-20T22:17:33.153Z,99833.11
2022-08-20T22:20:02.361Z,99838.42
2022-08-20T22:22:30.953Z,99841.67
2022-08-20T22:24:59.021Z,99843.10
2022-08-20T22:27:26.965Z,99847.09
2022-08-20T22:29:54.676Z,99845.00
2022-08-20T22:32:33.400Z,99844.46
2022-08-20T22:35:11.861Z,99849.74
2022-08-20T22:37:41.361Z,99851.71
2022-08-20T22:40:09.931Z,99851.73
2022-08-20T22:42:37.917Z,99855.28
2022-08-20T22:45:14.654Z,99851.15
2022-08-20T22:47:43.241Z,99855.32
2022-08-20T22:50:12.707Z,99854.95
2022-08-20T22:52:42.148Z,99860.66
2022-08-20T22:55:10.556Z,99859.21
2022-08-20T22:57:39.636Z,99861.85
2022-08-20T23:00:11.874Z,99866.59
2022-08-20T23:02:41.812Z,99872.73
2022-08-20T23:05:14.972Z,99867.30
2022-08-20T23:07:42.976Z,99869.40
2022-08-20T23:10:10.873Z,99874.05
2022-08-20T23:12:39.049Z,99870.48
2022-08-20T23:15:07.647Z,99866.76
2022-08-20T23:17:37.919Z,99871.77
2022-08-20T23:20:07.753Z,99872.67
2022-08-20T23:22:36.111Z,99873.48
2022-08-20T23:25:05.416Z,99878.85
2022-08-20T23:27:35.877Z,99883.60
2022-08-20T23:30:05.055Z,99887.13
2022-08-20T23:32:32.727Z,99887.48
2022-08-20T23:35:00.479Z,99883.29
2022-08-20T23:37:28.732Z,99879.31
2022-08-20T23:39:56.493Z,99875.31
2022-08-20T23:42:24.640Z,99870.80
2022-08-20T23:44:52.370Z,99878.70
2022-08-20T23:47:21.557Z,99880.11
2022-08-20T23:49:49.664Z,99880.39
2022-08-20T23:52:17.660Z,99881.33
2022-08-20T23:54:45.598Z,99880.36
2022-08-20T23:57:13.480Z,99882.05
2022-08-20T23:59:41.765Z,99880.82
